Mobile, AL

2:31 PM CDT on September 16, 2014 (GMT -0500)
Saybrook | Change Station
CLOSE
Current Station
Personal Weather Station
Location: Mobile, AL
Elevation: 92 ft
Nearby Weather Stations

Elev 92 ft 30.61 °N, 88.21 °W | Updated 9 seconds ago

Mostly Cloudy
Mostly Cloudy
87.6 °F
Feels Like 101 °F
N
0.0
Wind Variable Wind from WSW
Gusts 0.0 mph

Today
High -- | Low -- °F
--% Chance of Precip.
Yesterday
High -- | Low -- °F
Precip. -- in
6:37 AM 6:56 PM
Last Quarter, 43% visible
Pressure 29.99 in
Visibility 10.0 miles
Clouds Few 3500 ft
Scattered Clouds 4200 ft
Scattered Clouds 10000 ft
Heat Index 101 °F
Dew Point 78 °F
Humidity 73%
Rainfall 0.10 in
Snow Depth Not available.
UV 8 out of 12
Pollen 8.00 out of 12
Ozone Good
Flu Activity Not available.
METAR KMOB 161856Z VRB03KT 10SM -RA FEW035CB SCT042 SCT100 30/24 A3000 RMK AO2 LTG DSNT ALQDS RAB43 SLP156 CB SW MOV S CB DSNT SE-SW TCU DSNT E P0000 T03000239

More Conditions Fewer Conditions

Pressure 29.99 in
Visibility 10.0 miles
Clouds Few 3500 ft
Scattered Clouds 4200 ft
Scattered Clouds 10000 ft
Heat Index 101 °F
Dew Point 78 °F
Humidity 73%
Rainfall 0.10 in
Snow Depth Not available.
UV 8 out of 12
Pollen 8.00 out of 12
Ozone Good
Flu Activity Not available.
METAR KMOB 161856Z VRB03KT 10SM -RA FEW035CB SCT042 SCT100 30/24 A3000 RMK AO2 LTG DSNT ALQDS RAB43 SLP156 CB SW MOV S CB DSNT SE-SW TCU DSNT E P0000 T03000239

More Conditions Fewer Conditions

10-Day Weather Forecast

Almanac

Astronomy

Sep. 16, 2014 Rise Set
Actual Time 6:37 AM CDT 6:56 PM CDT
Civil Twilight 6:13 AM CDT 7:21 PM CDT
Nautical Twilight 5:45 AM CDT 7:49 PM CDT
Astronomical Twilight 5:16 AM CDT 8:17 PM CDT
Moon 12:04 AM CDT 2:03 PM CDT
Length of Visible Light 13h 07m
Length of Day
12h 19m
Tomorrow will be 1m 50s shorter.
Last Quarter, 43% of the Moon is Illuminated
Today
Last Quarter
Sep 24
New
Oct 1
First Quarter
Oct 8
Full
Oct 15
Last Quarter

Today's Extremes

State Highs State Lows

Community

WunderPhotos

Upload Photos

1,753,860 photos uploaded!

Nearby

Air Quality

  Air Quality AQ Index Pollutant
Yesterday Good
OZONE
Current Good
OZONE
Tuesday Good
OZONE
Wednesday Good
OZONE

Snow Depth

Station Depth Elevation
No new snow has been reported.

Earthquake Activity

City Distance Mag. Time & Date
No recent earthquake activity has been reported nearby.
Minimum magnitude displayed is 2.5.

Coastal Water Temperatures

Place Temperature
Mobile State Docks, AL 87.1 °F
Coast Guard Sector Mobile, AL 87.1 °F

Nearby Weather Stations